sensor_id;sensor_type;location;lat;lon;timestamp;pressure;altitude;pressure_sealevel;temperature;humidity
22753;BME280;11543;43.144;24.684;2023-09-30T00:02:21;99168.19;;;20.79;47.99
22753;BME280;11543;43.144;24.684;2023-09-30T00:04:47;99179.09;;;20.79;48.27
22753;BME280;11543;43.144;24.684;2023-09-30T00:07:12;99177.22;;;20.73;48.72
22753;BME280;11543;43.144;24.684;2023-09-30T00:09:38;99198.84;;;20.81;48.69
22753;BME280;11543;43.144;24.684;2023-09-30T00:12:03;99185.63;;;20.65;48.74
22753;BME280;11543;43.144;24.684;2023-09-30T00:14:29;99173.25;;;20.56;48.88
22753;BME280;11543;43.144;24.684;2023-09-30T00:16:55;99205.53;;;20.65;49.23
22753;BME280;11543;43.144;24.684;2023-09-30T00:19:21;99181.66;;;20.48;49.24
22753;BME280;11543;43.144;24.684;2023-09-30T00:21:48;99165.50;;;20.40;49.34
22753;BME280;11543;43.144;24.684;2023-09-30T00:24:13;99170.34;;;20.44;48.94
22753;BME280;11543;43.144;24.684;2023-09-30T00:26:39;99203.03;;;20.51;49.12
22753;BME280;11543;43.144;24.684;2023-09-30T00:29:04;99182.88;;;20.39;49.02
22753;BME280;11543;43.144;24.684;2023-09-30T00:31:30;99177.84;;;20.35;49.20
22753;BME280;11543;43.144;24.684;2023-09-30T00:33:57;99184.97;;;20.36;49.32
22753;BME280;11543;43.144;24.684;2023-09-30T00:36:22;99181.41;;;20.29;49.52
22753;BME280;11543;43.144;24.684;2023-09-30T00:38:48;99190.22;;;20.31;49.61
22753;BME280;11543;43.144;24.684;2023-09-30T00:41:13;99184.13;;;20.16;49.90
22753;BME280;11543;43.144;24.684;2023-09-30T00:43:39;99191.47;;;20.16;49.93
22753;BME280;11543;43.144;24.684;2023-09-30T00:46:25;99184.97;;;20.10;50.11
22753;BME280;11543;43.144;24.684;2023-09-30T00:48:53;99185.38;;;20.07;50.23
22753;BME280;11543;43.144;24.684;2023-09-30T00:51:44;99203.84;;;20.12;50.24
22753;BME280;11543;43.144;24.684;2023-09-30T00:54:11;99191.19;;;19.91;50.69
22753;BME280;11543;43.144;24.684;2023-09-30T00:56:43;99205.84;;;19.83;51.10
22753;BME280;11543;43.144;24.684;2023-09-30T00:59:11;99189.69;;;19.68;51.26
22753;BME280;11543;43.144;24.684;2023-09-30T01:01:37;99189.88;;;19.67;51.19
22753;BME280;11543;43.144;24.684;2023-09-30T01:04:03;99200.34;;;19.63;51.84
22753;BME280;11543;43.144;24.684;2023-09-30T01:06:29;99188.13;;;19.46;51.61
22753;BME280;11543;43.144;24.684;2023-09-30T01:08:55;99193.56;;;19.46;51.97
22753;BME280;11543;43.144;24.684;2023-09-30T01:11:21;99188.13;;;19.46;51.78
22753;BME280;11543;43.144;24.684;2023-09-30T01:13:47;99213.22;;;19.41;51.95
22753;BME280;11543;43.144;24.684;2023-09-30T01:16:12;99205.25;;;19.40;51.94
22753;BME280;11543;43.144;24.684;2023-09-30T01:18:39;99203.13;;;19.29;52.06
22753;BME280;11543;43.144;24.684;2023-09-30T01:21:08;99197.59;;;19.16;52.42
22753;BME280;11543;43.144;24.684;2023-09-30T01:23:35;99184.19;;;19.07;52.50
22753;BME280;11543;43.144;24.684;2023-09-30T01:26:06;99177.03;;;19.06;52.29
22753;BME280;11543;43.144;24.684;2023-09-30T01:28:32;99198.88;;;19.20;52.41
22753;BME280;11543;43.144;24.684;2023-09-30T01:30:58;99193.69;;;19.25;52.30
22753;BME280;11543;43.144;24.684;2023-09-30T01:33:24;99190.94;;;19.18;52.23
22753;BME280;11543;43.144;24.684;2023-09-30T01:35:49;99195.97;;;19.21;52.18
22753;BME280;11543;43.144;24.684;2023-09-30T01:38:15;99201.19;;;19.23;52.79
22753;BME280;11543;43.144;24.684;2023-09-30T01:40:41;99198.00;;;19.13;52.99
22753;BME280;11543;43.144;24.684;2023-09-30T01:43:07;99197.09;;;19.05;53.05
22753;BME280;11543;43.144;24.684;2023-09-30T01:45:33;99204.00;;;19.01;53.47
22753;BME280;11543;43.144;24.684;2023-09-30T01:47:58;99174.59;;;18.84;53.82
22753;BME280;11543;43.144;24.684;2023-09-30T01:50:24;99174.13;;;18.73;53.82
22753;BME280;11543;43.144;24.684;2023-09-30T01:52:49;99195.13;;;18.86;53.69
22753;BME280;11543;43.144;24.684;2023-09-30T01:55:15;99182.72;;;18.77;53.89
22753;BME280;11543;43.144;24.684;2023-09-30T01:57:41;99187.31;;;18.76;53.55
22753;BME280;11543;43.144;24.684;2023-09-30T02:00:07;99191.53;;;18.79;54.04
22753;BME280;11543;43.144;24.684;2023-09-30T02:02:35;99206.16;;;18.78;53.50
22753;BME280;11543;43.144;24.684;2023-09-30T02:05:02;99200.72;;;18.78;53.85
22753;BME280;11543;43.144;24.684;2023-09-30T02:07:28;99191.88;;;18.69;53.60
22753;BME280;11543;43.144;24.684;2023-09-30T02:09:54;99170.00;;;18.56;53.50
22753;BME280;11543;43.144;24.684;2023-09-30T02:12:20;99172.53;;;18.58;53.23
22753;BME280;11543;43.144;24.684;2023-09-30T02:14:45;99184.88;;;18.60;53.19
22753;BME280;11543;43.144;24.684;2023-09-30T02:17:12;99176.69;;;18.54;53.04
22753;BME280;11543;43.144;24.684;2023-09-30T02:19:39;99193.88;;;18.61;53.13
22753;BME280;11543;43.144;24.684;2023-09-30T02:22:06;99190.72;;;18.57;53.23
22753;BME280;11543;43.144;24.684;2023-09-30T02:24:32;99187.16;;;18.57;53.53
22753;BME280;11543;43.144;24.684;2023-09-30T02:26:58;99194.22;;;18.51;54.55
22753;BME280;11543;43.144;24.684;2023-09-30T02:29:23;99192.88;;;18.40;54.62
22753;BME280;11543;43.144;24.684;2023-09-30T02:31:49;99170.13;;;18.20;55.03
22753;BME280;11543;43.144;24.684;2023-09-30T02:34:15;99185.66;;;18.26;55.21
22753;BME280;11543;43.144;24.684;2023-09-30T02:36:40;99156.97;;;17.96;55.30
22753;BME280;11543;43.144;24.684;2023-09-30T02:39:07;99173.13;;;17.82;55.59
22753;BME280;11543;43.144;24.684;2023-09-30T02:41:35;99178.53;;;17.82;55.77
22753;BME280;11543;43.144;24.684;2023-09-30T02:44:01;99174.41;;;17.87;55.73
22753;BME280;11543;43.144;24.684;2023-09-30T02:46:26;99162.25;;;17.82;55.76
22753;BME280;11543;43.144;24.684;2023-09-30T02:48:53;99171.31;;;17.90;55.40
22753;BME280;11543;43.144;24.684;2023-09-30T02:51:19;99173.63;;;17.93;55.30
22753;BME280;11543;43.144;24.684;2023-09-30T02:53:45;99182.44;;;17.95;55.29
22753;BME280;11543;43.144;24.684;2023-09-30T02:56:11;99177.84;;;17.95;55.33
22753;BME280;11543;43.144;24.684;2023-09-30T02:58:37;99185.00;;;18.03;55.46
22753;BME280;11543;43.144;24.684;2023-09-30T03:01:03;99187.53;;;18.04;55.47
22753;BME280;11543;43.144;24.684;2023-09-30T03:03:29;99158.50;;;17.83;55.68
22753;BME280;11543;43.144;24.684;2023-09-30T03:05:56;99190.81;;;18.00;55.62
22753;BME280;11543;43.144;24.684;2023-09-30T03:08:22;99163.94;;;17.83;55.39
22753;BME280;11543;43.144;24.684;2023-09-30T03:10:49;99184.94;;;17.96;55.60
22753;BME280;11543;43.144;24.684;2023-09-30T03:13:14;99159.94;;;17.79;55.52
22753;BME280;11543;43.144;24.684;2023-09-30T03:15:40;99186.16;;;17.94;55.52
22753;BME280;11543;43.144;24.684;2023-09-30T03:18:06;99173.44;;;17.73;55.82
22753;BME280;11543;43.144;24.684;2023-09-30T03:20:31;99154.72;;;17.63;55.91
22753;BME280;11543;43.144;24.684;2023-09-30T03:22:57;99168.69;;;17.60;55.97
22753;BME280;11543;43.144;24.684;2023-09-30T03:25:23;99150.56;;;17.46;56.23
22753;BME280;11543;43.144;24.684;2023-09-30T03:27:49;99198.53;;;17.60;56.69
22753;BME280;11543;43.144;24.684;2023-09-30T03:30:16;99172.84;;;17.27;57.10
22753;BME280;11543;43.144;24.684;2023-09-30T03:32:42;99195.69;;;17.17;57.59
22753;BME280;11543;43.144;24.684;2023-09-30T03:35:10;99195.31;;;17.20;57.85
22753;BME280;11543;43.144;24.684;2023-09-30T03:37:48;99179.69;;;17.23;57.49
22753;BME280;11543;43.144;24.684;2023-09-30T03:40:13;99179.31;;;17.26;57.30
22753;BME280;11543;43.144;24.684;2023-09-30T03:42:43;99179.56;;;17.31;57.25
22753;BME280;11543;43.144;24.684;2023-09-30T03:45:10;99187.91;;;17.29;56.98
22753;BME280;11543;43.144;24.684;2023-09-30T03:47:36;99197.63;;;17.24;57.74
22753;BME280;11543;43.144;24.684;2023-09-30T03:50:03;99191.84;;;17.12;57.86
22753;BME280;11543;43.144;24.684;2023-09-30T03:52:30;99190.09;;;17.04;58.42
22753;BME280;11543;43.144;24.684;2023-09-30T03:54:59;99195.13;;;17.07;58.38
22753;BME280;11543;43.144;24.684;2023-09-30T03:57:24;99187.00;;;17.07;58.07
22753;BME280;11543;43.144;24.684;2023-09-30T03:59:50;99184.66;;;17.04;58.20
22753;BME280;11543;43.144;24.684;2023-09-30T04:02:15;99179.91;;;17.06;57.98
22753;BME280;11543;43.144;24.684;2023-09-30T04:04:41;99191.66;;;17.13;57.75
22753;BME280;11543;43.144;24.684;2023-09-30T04:07:06;99191.28;;;17.16;57.61
22753;BME280;11543;43.144;24.684;2023-09-30T04:09:35;99183.91;;;17.10;57.53
22753;BME280;11543;43.144;24.684;2023-09-30T04:12:01;99200.25;;;17.17;57.19
22753;BME280;11543;43.144;24.684;2023-09-30T04:14:26;99188.31;;;17.11;57.51
22753;BME280;11543;43.144;24.684;2023-09-30T04:16:52;99194.38;;;17.13;57.31
22753;BME280;11543;43.144;24.684;2023-09-30T04:19:19;99183.06;;;17.10;57.27
22753;BME280;11543;43.144;24.684;2023-09-30T04:21:45;99196.44;;;17.11;57.37
22753;BME280;11543;43.144;24.684;2023-09-30T04:24:11;99192.69;;;17.12;57.42
22753;BME280;11543;43.144;24.684;2023-09-30T04:26:36;99176.72;;;17.03;57.34
22753;BME280;11543;43.144;24.684;2023-09-30T04:29:02;99182.97;;;17.03;57.54
22753;BME280;11543;43.144;24.684;2023-09-30T04:31:37;99186.91;;;17.15;57.13
22753;BME280;11543;43.144;24.684;2023-09-30T04:34:04;99214.66;;;17.32;56.94
22753;BME280;11543;43.144;24.684;2023-09-30T04:36:31;99218.69;;;17.36;57.10
22753;BME280;11543;43.144;24.684;2023-09-30T04:38:57;99217.09;;;17.27;56.95
22753;BME280;11543;43.144;24.684;2023-09-30T04:41:26;99213.16;;;17.30;56.92
22753;BME280;11543;43.144;24.684;2023-09-30T04:43:51;99220.91;;;17.33;57.09
22753;BME280;11543;43.144;24.684;2023-09-30T04:46:18;99217.16;;;17.34;57.12
22753;BME280;11543;43.144;24.684;2023-09-30T04:48:45;99199.44;;;17.16;57.31
22753;BME280;11543;43.144;24.684;2023-09-30T04:51:14;99226.81;;;17.36;57.32
22753;BME280;11543;43.144;24.684;2023-09-30T04:53:41;99200.72;;;17.20;57.45
22753;BME280;11543;43.144;24.684;2023-09-30T04:56:07;99211.94;;;17.17;57.35
22753;BME280;11543;43.144;24.684;2023-09-30T04:58:32;99222.13;;;17.30;57.52
22753;BME280;11543;43.144;24.684;2023-09-30T05:00:58;99215.59;;;17.25;57.45
22753;BME280;11543;43.144;24.684;2023-09-30T05:03:23;99226.72;;;17.30;57.30
22753;BME280;11543;43.144;24.684;2023-09-30T05:17:01;99226.25;;;17.92;56.30
22753;BME280;11543;43.144;24.684;2023-09-30T05:19:27;99230.38;;;17.88;56.37
22753;BME280;11543;43.144;24.684;2023-09-30T05:21:52;99232.19;;;18.02;56.23
22753;BME280;11543;43.144;24.684;2023-09-30T05:24:18;99229.22;;;17.97;56.25
22753;BME280;11543;43.144;24.684;2023-09-30T05:26:44;99236.34;;;17.98;56.66
22753;BME280;11543;43.144;24.684;2023-09-30T05:29:10;99209.44;;;17.81;56.80
22753;BME280;11543;43.144;24.684;2023-09-30T05:31:36;99210.84;;;17.77;57.12
22753;BME280;11543;43.144;24.684;2023-09-30T05:34:02;99226.91;;;17.94;56.98
22753;BME280;11543;43.144;24.684;2023-09-30T05:36:27;99236.34;;;17.98;56.92
22753;BME280;11543;43.144;24.684;2023-09-30T05:38:54;99219.13;;;17.91;57.07
22753;BME280;11543;43.144;24.684;2023-09-30T05:41:20;99237.63;;;18.02;57.20
22753;BME280;11543;43.144;24.684;2023-09-30T05:43:46;99255.47;;;18.11;56.99
22753;BME280;11543;43.144;24.684;2023-09-30T05:46:12;99246.41;;;18.04;57.17
22753;BME280;11543;43.144;24.684;2023-09-30T05:48:38;99251.91;;;18.10;56.93
22753;BME280;11543;43.144;24.684;2023-09-30T05:51:05;99235.16;;;18.07;56.71
22753;BME280;11543;43.144;24.684;2023-09-30T05:53:31;99244.13;;;18.22;56.90
22753;BME280;11543;43.144;24.684;2023-09-30T05:55:58;99249.16;;;18.25;56.87
22753;BME280;11543;43.144;24.684;2023-09-30T05:58:25;99268.94;;;18.40;56.89
22753;BME280;11543;43.144;24.684;2023-09-30T06:00:52;99258.03;;;18.34;56.69
22753;BME280;11543;43.144;24.684;2023-09-30T06:03:18;99250.06;;;18.32;56.75
22753;BME280;11543;43.144;24.684;2023-09-30T06:05:46;99267.28;;;18.39;56.76
22753;BME280;11543;43.144;24.684;2023-09-30T06:08:12;99259.50;;;18.36;56.83
22753;BME280;11543;43.144;24.684;2023-09-30T06:10:41;99292.75;;;18.60;56.82
22753;BME280;11543;43.144;24.684;2023-09-30T06:13:11;99291.34;;;18.64;56.84
22753;BME280;11543;43.144;24.684;2023-09-30T06:15:40;99292.25;;;18.71;56.64
22753;BME280;11543;43.144;24.684;2023-09-30T06:18:07;99288.09;;;18.75;56.40
22753;BME280;11543;43.144;24.684;2023-09-30T06:20:33;99282.66;;;18.75;56.34
22753;BME280;11543;43.144;24.684;2023-09-30T06:22:59;99311.47;;;18.97;56.13
22753;BME280;11543;43.144;24.684;2023-09-30T06:25:25;99320.53;;;19.04;55.92
22753;BME280;11543;43.144;24.684;2023-09-30T06:27:53;99319.38;;;19.14;55.76
22753;BME280;11543;43.144;24.684;2023-09-30T06:30:20;99325.31;;;19.24;55.36
22753;BME280;11543;43.144;24.684;2023-09-30T06:32:46;99293.44;;;19.18;55.46
22753;BME280;11543;43.144;24.684;2023-09-30T06:35:12;99319.97;;;19.44;54.82
22753;BME280;11543;43.144;24.684;2023-09-30T06:37:44;99291.94;;;19.43;54.35
22753;BME280;11543;43.144;24.684;2023-09-30T06:40:11;99308.16;;;19.58;54.30
22753;BME280;11543;43.144;24.684;2023-09-30T06:42:38;99317.63;;;19.68;54.22
22753;BME280;11543;43.144;24.684;2023-09-30T06:45:05;99306.34;;;19.71;54.19
22753;BME280;11543;43.144;24.684;2023-09-30T06:47:32;99309.28;;;19.77;53.93
22753;BME280;11543;43.144;24.684;2023-09-30T06:50:00;99301.34;;;19.82;53.97
22753;BME280;11543;43.144;24.684;2023-09-30T06:52:33;99275.34;;;19.72;53.83
22753;BME280;11543;43.144;24.684;2023-09-30T06:54:58;99302.22;;;19.89;53.44
22753;BME280;11543;43.144;24.684;2023-09-30T06:57:24;99301.81;;;19.92;53.13
22753;BME280;11543;43.144;24.684;2023-09-30T06:59:50;99313.63;;;20.06;53.00
22753;BME280;11543;43.144;24.684;2023-09-30T07:02:15;99291.84;;;20.12;52.02
22753;BME280;11543;43.144;24.684;2023-09-30T07:04:40;99304.50;;;20.40;51.23
22753;BME280;11543;43.144;24.684;2023-09-30T07:07:06;99297.19;;;20.47;51.16
22753;BME280;11543;43.144;24.684;2023-09-30T07:09:31;99299.69;;;20.55;50.97
22753;BME280;11543;43.144;24.684;2023-09-30T07:11:57;99312.09;;;20.64;51.62
22753;BME280;11543;43.144;24.684;2023-09-30T07:14:22;99289.44;;;20.70;51.13
22753;BME280;11543;43.144;24.684;2023-09-30T07:16:48;99283.56;;;20.73;50.38
22753;BME280;11543;43.144;24.684;2023-09-30T07:19:13;99277.28;;;20.86;49.56
22753;BME280;11543;43.144;24.684;2023-09-30T07:21:39;99290.28;;;21.04;48.49
22753;BME280;11543;43.144;24.684;2023-09-30T07:24:05;99278.09;;;21.13;48.24
22753;BME280;11543;43.144;24.684;2023-09-30T07:26:30;99289.00;;;21.19;48.21
22753;BME280;11543;43.144;24.684;2023-09-30T07:28:56;99302.22;;;21.36;48.56
22753;BME280;11543;43.144;24.684;2023-09-30T07:31:23;99289.00;;;21.39;48.36
22753;BME280;11543;43.144;24.684;2023-09-30T07:33:49;99289.81;;;21.46;47.78
22753;BME280;11543;43.144;24.684;2023-09-30T07:36:14;99295.66;;;21.56;47.14
22753;BME280;11543;43.144;24.684;2023-09-30T07:38:40;99305.94;;;21.68;46.76
22753;BME280;11543;43.144;24.684;2023-09-30T07:41:06;99305.28;;;21.79;47.02
22753;BME280;11543;43.144;24.684;2023-09-30T07:43:31;99310.66;;;21.99;45.99
22753;BME280;11543;43.144;24.684;2023-09-30T07:45:57;99295.31;;;22.04;45.68
22753;BME280;11543;43.144;24.684;2023-09-30T07:48:22;99297.13;;;22.17;45.60
22753;BME280;11543;43.144;24.684;2023-09-30T07:50:48;99289.31;;;22.20;45.70
22753;BME280;11543;43.144;24.684;2023-09-30T07:53:13;99302.28;;;22.32;45.99
22753;BME280;11543;43.144;24.684;2023-09-30T07:55:39;99278.34;;;22.27;45.60
22753;BME280;11543;43.144;24.684;2023-09-30T07:58:05;99302.00;;;22.46;45.40
22753;BME280;11543;43.144;24.684;2023-09-30T08:00:30;99295.63;;;22.59;44.77
22753;BME280;11543;43.144;24.684;2023-09-30T08:02:59;99306.00;;;22.75;44.09
22753;BME280;11543;43.144;24.684;2023-09-30T08:05:26;99281.16;;;22.77;43.97
22753;BME280;11543;43.144;24.684;2023-09-30T08:07:51;99285.72;;;22.90;43.92
22753;BME280;11543;43.144;24.684;2023-09-30T08:10:17;99306.59;;;23.09;43.19
22753;BME280;11543;43.144;24.684;2023-09-30T08:12:42;99291.41;;;23.13;43.33
22753;BME280;11543;43.144;24.684;2023-09-30T08:15:11;99303.28;;;23.25;43.25
22753;BME280;11543;43.144;24.684;2023-09-30T08:17:40;99303.31;;;23.43;42.87
22753;BME280;11543;43.144;24.684;2023-09-30T08:20:06;99286.47;;;23.40;42.81
22753;BME280;11543;43.144;24.684;2023-09-30T08:22:32;99295.97;;;23.62;42.77
22753;BME280;11543;43.144;24.684;2023-09-30T08:24:57;99281.97;;;23.70;42.73
22753;BME280;11543;43.144;24.684;2023-09-30T08:27:23;99289.81;;;23.85;42.46
22753;BME280;11543;43.144;24.684;2023-09-30T08:29:51;99280.56;;;23.98;42.67
22753;BME280;11543;43.144;24.684;2023-09-30T08:32:17;99289.44;;;24.11;42.55
22753;BME280;11543;43.144;24.684;2023-09-30T08:34:42;99288.41;;;24.31;41.57
22753;BME280;11543;43.144;24.684;2023-09-30T08:37:08;99292.47;;;24.40;41.37
22753;BME280;11543;43.144;24.684;2023-09-30T08:39:38;99289.28;;;24.55;41.06
22753;BME280;11543;43.144;24.684;2023-09-30T08:42:09;99291.50;;;24.76;40.65
22753;BME280;11543;43.144;24.684;2023-09-30T08:44:37;99276.16;;;24.98;38.68
22753;BME280;11543;43.144;24.684;2023-09-30T08:47:05;99274.84;;;25.13;39.15
22753;BME280;11543;43.144;24.684;2023-09-30T08:49:35;99282.97;;;25.31;38.76
22753;BME280;11543;43.144;24.684;2023-09-30T08:52:02;99275.31;;;25.45;37.97
22753;BME280;11543;43.144;24.684;2023-09-30T08:54:31;99261.81;;;25.55;36.33
22753;BME280;11543;43.144;24.684;2023-09-30T08:56:57;99266.91;;;25.75;35.20
22753;BME280;11543;43.144;24.684;2023-09-30T08:59:24;99267.97;;;25.85;35.21
22753;BME280;11543;43.144;24.684;2023-09-30T09:01:51;99265.81;;;25.87;34.74
22753;BME280;11543;43.144;24.684;2023-09-30T09:04:17;99270.19;;;26.00;34.72
22753;BME280;11543;43.144;24.684;2023-09-30T09:06:44;99264.56;;;26.07;34.65
22753;BME280;11543;43.144;24.684;2023-09-30T09:09:18;99258.38;;;26.28;33.92
22753;BME280;11543;43.144;24.684;2023-09-30T09:11:45;99261.25;;;26.33;34.04
22753;BME280;11543;43.144;24.684;2023-09-30T09:14:11;99252.78;;;26.23;34.24
22753;BME280;11543;43.144;24.684;2023-09-30T09:16:37;99258.63;;;26.26;34.17
22753;BME280;11543;43.144;24.684;2023-09-30T09:19:15;99255.97;;;26.31;35.27
22753;BME280;11543;43.144;24.684;2023-09-30T09:21:58;99250.91;;;26.40;34.81
22753;BME280;11543;43.144;24.684;2023-09-30T09:24:34;99248.44;;;26.55;34.46
22753;BME280;11543;43.144;24.684;2023-09-30T09:27:10;99259.34;;;26.84;34.39
22753;BME280;11543;43.144;24.684;2023-09-30T09:29:37;99252.00;;;27.01;33.88
22753;BME280;11543;43.144;24.684;2023-09-30T09:32:10;99257.72;;;27.16;32.93
22753;BME280;11543;43.144;24.684;2023-09-30T09:34:37;99239.34;;;27.22;31.61
22753;BME280;11543;43.144;24.684;2023-09-30T09:37:21;99241.56;;;27.42;31.40
22753;BME280;11543;43.144;24.684;2023-09-30T09:39:55;99249.31;;;27.45;31.53
22753;BME280;11543;43.144;24.684;2023-09-30T09:42:31;99243.78;;;27.45;31.83
22753;BME280;11543;43.144;24.684;2023-09-30T09:45:00;99233.53;;;27.40;31.57
22753;BME280;11543;43.144;24.684;2023-09-30T09:47:26;99229.94;;;27.40;31.59
22753;BME280;11543;43.144;24.684;2023-09-30T09:49:53;99236.75;;;27.54;31.28
22753;BME280;11543;43.144;24.684;2023-09-30T09:52:21;99246.91;;;27.70;31.02
22753;BME280;11543;43.144;24.684;2023-09-30T09:54:48;99238.13;;;27.73;31.46
22753;BME280;11543;43.144;24.684;2023-09-30T09:57:14;99224.03;;;27.70;31.52
22753;BME280;11543;43.144;24.684;2023-09-30T09:59:43;99226.72;;;27.86;30.43
22753;BME280;11543;43.144;24.684;2023-09-30T10:02:11;99231.06;;;28.04;30.68
22753;BME280;11543;43.144;24.684;2023-09-30T10:04:43;99210.91;;;28.04;30.59
22753;BME280;11543;43.144;24.684;2023-09-30T10:07:26;99220.91;;;28.10;30.61
22753;BME280;11543;43.144;24.684;2023-09-30T10:09:53;99212.13;;;28.13;30.41
22753;BME280;11543;43.144;24.684;2023-09-30T10:12:23;99217.81;;;28.28;30.19
22753;BME280;11543;43.144;24.684;2023-09-30T10:14:48;99219.56;;;28.39;30.30
22753;BME280;11543;43.144;24.684;2023-09-30T10:17:14;99188.59;;;28.32;30.05
22753;BME280;11543;43.144;24.684;2023-09-30T10:20:03;99215.97;;;28.66;29.59
22753;BME280;11543;43.144;24.684;2023-09-30T10:22:31;99219.38;;;28.78;29.17
22753;BME280;11543;43.144;24.684;2023-09-30T10:24:58;99203.34;;;28.75;28.92
22753;BME280;11543;43.144;24.684;2023-09-30T10:35:17;99186.63;;;28.92;29.53
22753;BME280;11543;43.144;24.684;2023-09-30T10:37:43;99194.53;;;29.20;29.54
22753;BME280;11543;43.144;24.684;2023-09-30T10:40:28;99188.81;;;29.37;28.89
22753;BME280;11543;43.144;24.684;2023-09-30T10:42:54;99192.84;;;29.56;28.14
22753;BME280;11543;43.144;24.684;2023-09-30T10:51:16;99177.75;;;29.99;27.79
22753;BME280;11543;43.144;24.684;2023-09-30T10:53:49;99172.25;;;30.15;27.05
22753;BME280;11543;43.144;24.684;2023-09-30T10:56:18;99172.53;;;30.23;27.39
22753;BME280;11543;43.144;24.684;2023-09-30T10:58:44;99164.00;;;30.40;27.38
22753;BME280;11543;43.144;24.684;2023-09-30T11:01:10;99159.84;;;30.48;26.89
22753;BME280;11543;43.144;24.684;2023-09-30T11:03:36;99162.06;;;30.56;26.62
22753;BME280;11543;43.144;24.684;2023-09-30T11:06:02;99129.41;;;30.42;26.13
22753;BME280;11543;43.144;24.684;2023-09-30T11:08:29;99147.13;;;30.47;26.59
22753;BME280;11543;43.144;24.684;2023-09-30T11:10:56;99150.44;;;30.49;26.50
22753;BME280;11543;43.144;24.684;2023-09-30T11:13:22;99148.22;;;30.46;26.38
22753;BME280;11543;43.144;24.684;2023-09-30T11:15:59;99155.41;;;30.41;26.95
22753;BME280;11543;43.144;24.684;2023-09-30T11:18:25;99142.94;;;30.34;26.80
22753;BME280;11543;43.144;24.684;2023-09-30T11:21:06;99154.88;;;30.39;27.30
22753;BME280;11543;43.144;24.684;2023-09-30T11:23:32;99140.19;;;30.39;26.50
22753;BME280;11543;43.144;24.684;2023-09-30T11:25:58;99144.91;;;30.49;25.93
22753;BME280;11543;43.144;24.684;2023-09-30T11:28:24;99136.59;;;30.43;25.71
22753;BME280;11543;43.144;24.684;2023-09-30T11:30:59;99124.38;;;30.29;26.17
22753;BME280;11543;43.144;24.684;2023-09-30T11:33:25;99123.28;;;30.20;25.49
22753;BME280;11543;43.144;24.684;2023-09-30T11:36:06;99137.13;;;30.20;26.22
22753;BME280;11543;43.144;24.684;2023-09-30T11:38:35;99130.47;;;30.16;25.95
22753;BME280;11543;43.144;24.684;2023-09-30T11:41:05;99136.00;;;30.16;26.20
22753;BME280;11543;43.144;24.684;2023-09-30T11:43:33;99123.28;;;30.15;25.95
22753;BME280;11543;43.144;24.684;2023-09-30T11:46:09;99142.94;;;30.24;26.72
22753;BME280;11543;43.144;24.684;2023-09-30T11:48:36;99142.66;;;30.30;26.61
22753;BME280;11543;43.144;24.684;2023-09-30T11:51:02;99132.69;;;30.34;26.16
22753;BME280;11543;43.144;24.684;2023-09-30T11:53:32;99137.16;;;30.40;25.87
22753;BME280;11543;43.144;24.684;2023-09-30T11:56:04;99127.19;;;30.45;25.87
22753;BME280;11543;43.144;24.684;2023-09-30T11:58:29;99124.97;;;30.47;25.98
22753;BME280;11543;43.144;24.684;2023-09-30T12:01:00;99117.75;;;30.46;25.34
22753;BME280;11543;43.144;24.684;2023-09-30T12:03:26;99119.44;;;30.36;25.38
22753;BME280;11543;43.144;24.684;2023-09-30T12:05:53;99113.88;;;30.26;24.96
22753;BME280;11543;43.144;24.684;2023-09-30T12:08:23;99098.91;;;30.17;25.21
22753;BME280;11543;43.144;24.684;2023-09-30T12:10:49;99097.81;;;30.23;25.74
22753;BME280;11543;43.144;24.684;2023-09-30T12:13:15;99103.06;;;30.30;25.27
22753;BME280;11543;43.144;24.684;2023-09-30T12:15:41;99098.91;;;30.27;24.95
22753;BME280;11543;43.144;24.684;2023-09-30T12:18:07;99094.78;;;30.25;25.04
22753;BME280;11543;43.144;24.684;2023-09-30T12:20:32;99090.06;;;30.25;25.30
22753;BME280;11543;43.144;24.684;2023-09-30T12:22:58;99083.69;;;30.25;25.36
22753;BME280;11543;43.144;24.684;2023-09-30T12:25:24;99097.84;;;30.38;25.10
22753;BME280;11543;43.144;24.684;2023-09-30T12:27:50;99071.22;;;30.32;25.59
22753;BME280;11543;43.144;24.684;2023-09-30T12:30:16;99079.25;;;30.29;25.10
22753;BME280;11543;43.144;24.684;2023-09-30T12:32:45;99072.34;;;30.21;25.22
22753;BME280;11543;43.144;24.684;2023-09-30T12:35:11;99063.78;;;30.23;25.88
22753;BME280;11543;43.144;24.684;2023-09-30T12:37:37;99064.59;;;30.23;25.71
22753;BME280;11543;43.144;24.684;2023-09-30T12:40:05;99053.25;;;30.20;25.56
22753;BME280;11543;43.144;24.684;2023-09-30T12:42:32;99061.53;;;30.30;25.34
22753;BME280;11543;43.144;24.684;2023-09-30T12:45:00;99054.06;;;30.30;25.77
22753;BME280;11543;43.144;24.684;2023-09-30T12:47:26;99059.91;;;30.44;25.44
22753;BME280;11543;43.144;24.684;2023-09-30T12:49:52;99052.97;;;30.47;25.35
22753;BME280;11543;43.144;24.684;2023-09-30T12:52:17;99045.22;;;30.49;25.33
22753;BME280;11543;43.144;24.684;2023-09-30T12:54:43;99031.94;;;30.40;25.83
22753;BME280;11543;43.144;24.684;2023-09-30T12:57:08;99024.75;;;30.39;26.02
22753;BME280;11543;43.144;24.684;2023-09-30T12:59:34;99044.91;;;30.65;25.54
22753;BME280;11543;43.144;24.684;2023-09-30T13:01:59;99040.75;;;30.73;24.79
22753;BME280;11543;43.144;24.684;2023-09-30T13:04:25;99038.56;;;30.65;24.52
22753;BME280;11543;43.144;24.684;2023-09-30T13:06:52;99030.25;;;30.60;24.56
22753;BME280;11543;43.144;24.684;2023-09-30T13:09:17;99036.88;;;30.69;24.66
22753;BME280;11543;43.144;24.684;2023-09-30T13:11:45;99019.19;;;30.60;24.44
22753;BME280;11543;43.144;24.684;2023-09-30T13:14:10;99024.16;;;30.63;23.93
22753;BME280;11543;43.144;24.684;2023-09-30T13:16:36;99008.09;;;30.50;24.03